createdAt,value
2019-01-03T00:00:20.946Z,61.41
2019-01-03T00:03:17.761Z,61.28
2019-01-03T00:06:26.894Z,61.26
2019-01-03T00:09:19.016Z,61.24
2019-01-03T00:12:11.409Z,61.32
2019-01-03T00:15:04.929Z,61.98
2019-01-03T00:17:54.696Z,62.71
2019-01-03T00:20:49.094Z,64.44
2019-01-03T00:23:40.164Z,63.96
2019-01-03T00:26:34.869Z,63.62
2019-01-03T00:29:42.806Z,63.35
2019-01-03T00:32:47.370Z,63.01
2019-01-03T00:35:40.984Z,63.86
2019-01-03T00:38:24.504Z,64.25
2019-01-03T00:41:13.951Z,65.02
2019-01-03T00:43:55.052Z,65.12
2019-01-03T00:46:47.420Z,65.68
2019-01-03T00:49:44.542Z,66.34
2019-01-03T00:52:37.982Z,65.78
2019-01-03T00:55:39.182Z,65.58
2019-01-03T00:58:32.021Z,66.05
2019-01-03T01:01:21.068Z,67.16
2019-01-03T01:04:14.621Z,67.64
2019-01-03T01:07:04.322Z,68.28
2019-01-03T01:10:08.958Z,68.21
2019-01-03T01:13:05.288Z,68.52
2019-01-03T01:15:57.993Z,68.75
2019-01-03T01:18:48.771Z,68.71
2019-01-03T01:21:56.962Z,69.33
2019-01-03T01:24:51.281Z,69.72
2019-01-03T01:27:50.092Z,69.26
2019-01-03T01:30:39.497Z,69.19
2019-01-03T01:33:42.512Z,69.01
2019-01-03T01:36:45.402Z,69.66
2019-01-03T01:39:41.318Z,69.15
2019-01-03T01:42:36.599Z,69.47
2019-01-03T01:45:32.043Z,69.57
2019-01-03T01:48:34.897Z,69.08
2019-01-03T01:51:23.224Z,69.05
2019-01-03T01:54:28.845Z,69.83
2019-01-03T01:57:25.609Z,69.98
2019-01-03T02:00:27.904Z,69.67
2019-01-03T02:03:16.786Z,69.71
2019-01-03T02:06:03.362Z,70.72
2019-01-03T02:09:03.583Z,70.46
2019-01-03T02:12:00.121Z,70.65
2019-01-03T02:14:50.064Z,70.99
2019-01-03T02:17:46.691Z,70.61
2019-01-03T02:20:39.786Z,70.79
2019-01-03T02:23:33.478Z,70.61
2019-01-03T02:26:23.118Z,71.51
2019-01-03T02:29:13.977Z,71.24
2019-01-03T02:32:03.949Z,70.26
2019-01-03T02:34:56.695Z,70.07
2019-01-03T02:37:45.239Z,70.64
2019-01-03T02:40:41.073Z,70.46
2019-01-03T02:43:36.056Z,70.70
2019-01-03T02:46:32.641Z,70.08
2019-01-03T02:49:26.207Z,70.76
2019-01-03T02:52:15.986Z,70.87
2019-01-03T02:55:01.533Z,70.98
2019-01-03T02:57:52.372Z,70.78
2019-01-03T03:00:43.074Z,70.96
2019-01-03T03:03:22.745Z,70.54
2019-01-03T03:06:31.976Z,71.11
2019-01-03T03:09:31.296Z,71.35
2019-01-03T03:12:28.217Z,71.17
2019-01-03T03:15:27.967Z,71.39
2019-01-03T03:18:21.836Z,71.41
2019-01-03T03:21:28.113Z,72.27
2019-01-03T03:24:18.056Z,72.14
2019-01-03T03:27:21.249Z,72.20
2019-01-03T03:30:10.895Z,72.65
2019-01-03T03:33:01.634Z,72.54
2019-01-03T03:35:51.207Z,72.80
2019-01-03T03:38:40.894Z,73.16
2019-01-03T03:41:20.461Z,73.57
2019-01-03T03:44:10.337Z,73.09
2019-01-03T03:47:03.621Z,73.48
2019-01-03T03:49:54.390Z,73.83
2019-01-03T03:52:54.488Z,73.45
2019-01-03T03:55:42.899Z,72.89
2019-01-03T03:58:39.545Z,72.63
2019-01-03T04:01:29.289Z,73.02
2019-01-03T04:04:20.028Z,73.28
2019-01-03T04:07:13.979Z,73.00
2019-01-03T04:10:04.706Z,72.55
2019-01-03T04:12:59.473Z,73.00
2019-01-03T04:15:52.346Z,73.04
2019-01-03T04:18:39.576Z,72.97
2019-01-03T04:21:28.946Z,73.18
2019-01-03T04:24:19.643Z,73.28
2019-01-03T04:27:09.269Z,73.03
2019-01-03T04:29:56.645Z,73.09
2019-01-03T04:32:45.989Z,73.77
2019-01-03T04:35:39.479Z,74.09
2019-01-03T04:38:28.824Z,74.47
2019-01-03T04:41:19.576Z,74.02
2019-01-03T04:44:10.330Z,73.81
2019-01-03T04:47:09.880Z,74.17
2019-01-03T04:49:59.375Z,74.86
2019-01-03T04:52:49.265Z,74.88
2019-01-03T04:55:38.653Z,74.90
2019-01-03T04:58:28.027Z,75.03
2019-01-03T05:02:04.312Z,75.23
2019-01-03T05:05:04.320Z,75.40
2019-01-03T05:08:10.281Z,75.04
2019-01-03T05:11:16.377Z,74.98
2019-01-03T05:14:05.922Z,74.93
2019-01-03T05:16:58.518Z,74.73
2019-01-03T05:20:01.401Z,75.05
2019-01-03T05:22:54.974Z,74.92
2019-01-03T05:25:48.593Z,75.16
2019-01-03T05:28:54.630Z,75.62
2019-01-03T05:31:45.871Z,74.74
2019-01-03T05:34:35.474Z,74.55
2019-01-03T05:37:41.595Z,74.49
2019-01-03T05:40:31.586Z,75.45
2019-01-03T05:43:22.891Z,76.21
2019-01-03T05:46:16.708Z,75.83
2019-01-03T05:49:06.217Z,74.81
2019-01-03T05:51:59.703Z,74.84
2019-01-03T05:55:02.778Z,76.71
2019-01-03T05:57:51.973Z,77.09
2019-01-03T06:00:41.661Z,76.59
2019-01-03T06:03:38.351Z,76.98
2019-01-03T06:06:30.175Z,76.73
2019-01-03T06:09:16.722Z,76.32
2019-01-03T06:12:13.732Z,76.18
2019-01-03T06:15:07.287Z,75.93
2019-01-03T06:17:56.728Z,75.90
2019-01-03T06:20:52.378Z,75.30
2019-01-03T06:23:55.245Z,74.95
2019-01-03T06:26:44.688Z,74.44
2019-01-03T06:29:53.890Z,73.83
2019-01-03T06:32:43.204Z,73.23
2019-01-03T06:35:39.806Z,73.77
2019-01-03T06:38:39.457Z,73.79
2019-01-03T06:41:33.045Z,73.70
2019-01-03T06:44:26.390Z,74.60
2019-01-03T06:47:17.131Z,74.25
2019-01-03T06:50:26.479Z,74.13
2019-01-03T06:53:17.245Z,74.36
2019-01-03T06:56:20.249Z,74.68
2019-01-03T06:59:12.990Z,75.00
2019-01-03T07:02:15.863Z,75.08
2019-01-03T07:05:10.012Z,75.14
2019-01-03T07:08:05.740Z,74.85
2019-01-03T07:11:02.491Z,75.10
2019-01-03T07:14:00.804Z,75.05
2019-01-03T07:16:50.229Z,74.98
2019-01-03T07:20:02.577Z,75.35
2019-01-03T07:23:06.348Z,75.25
2019-01-03T07:26:02.137Z,74.66
2019-01-03T07:29:12.983Z,74.31
2019-01-03T07:32:10.287Z,73.87
2019-01-03T07:35:11.688Z,74.08
2019-01-03T07:38:01.472Z,74.12
2019-01-03T07:40:56.932Z,74.53
2019-01-03T07:43:45.658Z,74.67
2019-01-03T07:46:34.335Z,75.22
2019-01-03T07:49:26.832Z,74.98
2019-01-03T07:52:18.684Z,74.83
2019-01-03T07:55:12.213Z,75.25
2019-01-03T07:58:21.140Z,75.40
2019-01-03T08:01:17.321Z,75.43
2019-01-03T08:04:17.593Z,75.55
2019-01-03T08:07:14.814Z,75.61
2019-01-03T08:10:09.177Z,75.61
2019-01-03T08:13:15.029Z,75.53
2019-01-03T08:16:04.284Z,75.52
2019-01-03T08:18:55.354Z,75.55
2019-01-03T08:22:05.434Z,75.34
2019-01-03T08:24:52.104Z,75.26
2019-01-03T08:27:41.524Z,74.96
2019-01-03T08:30:22.768Z,75.16
2019-01-03T08:33:22.092Z,74.99
2019-01-03T08:36:11.527Z,75.45
2019-01-03T08:39:05.327Z,75.64
2019-01-03T08:41:59.930Z,75.43
2019-01-03T08:44:49.560Z,74.98
2019-01-03T08:47:43.088Z,74.81
2019-01-03T08:50:32.700Z,74.93
2019-01-03T08:53:23.951Z,75.18
2019-01-03T08:56:16.626Z,75.51
2019-01-03T08:59:08.011Z,75.14
2019-01-03T09:02:10.693Z,76.18
2019-01-03T09:05:00.282Z,75.74
2019-01-03T09:07:56.718Z,75.78
2019-01-03T09:10:52.513Z,75.43
2019-01-03T09:13:45.304Z,74.86
2019-01-03T09:16:34.412Z,74.92
2019-01-03T09:19:27.688Z,75.44
2019-01-03T09:22:19.716Z,75.16
2019-01-03T09:25:08.501Z,75.03
2019-01-03T09:28:12.279Z,75.29
2019-01-03T09:31:21.152Z,74.96
2019-01-03T09:34:18.900Z,74.94
2019-01-03T09:37:05.819Z,74.56
2019-01-03T09:39:49.429Z,74.48
2019-01-03T09:42:41.283Z,73.90
2019-01-03T09:45:13.190Z,74.47
2019-01-03T09:47:45.052Z,74.38
2019-01-03T09:50:16.960Z,74.07
2019-01-03T09:52:48.973Z,74.33
2019-01-03T09:55:20.988Z,74.24
2019-01-03T09:57:57.334Z,73.95
2019-01-03T10:00:31.400Z,73.82
2019-01-03T10:03:07.491Z,73.62
2019-01-03T10:05:39.407Z,72.85
2019-01-03T10:08:11.367Z,73.05
2019-01-03T10:10:46.615Z,72.47
2019-01-03T10:13:20.813Z,72.08
2019-01-03T10:15:55.676Z,71.88
2019-01-03T10:18:31.814Z,72.39
2019-01-03T10:21:14.327Z,72.38
2019-01-03T10:23:46.297Z,72.48
2019-01-03T10:26:18.227Z,72.35
2019-01-03T10:28:50.609Z,72.31
2019-01-03T10:31:26.808Z,71.61
2019-01-03T10:33:58.698Z,71.90
2019-01-03T10:36:33.751Z,72.58
2019-01-03T10:39:09.955Z,71.54
2019-01-03T10:41:41.875Z,69.90
2019-01-03T10:44:13.747Z,70.23
2019-01-03T10:46:45.672Z,70.82
2019-01-03T10:49:17.594Z,71.69
2019-01-03T10:51:49.514Z,71.49
2019-01-03T10:54:21.398Z,70.89
2019-01-03T10:56:53.444Z,69.75
2019-01-03T10:59:25.448Z,68.91
2019-01-03T11:01:57.301Z,67.48
2019-01-03T11:04:30.293Z,67.37
2019-01-03T11:07:02.240Z,67.72
2019-01-03T11:09:34.250Z,68.09
2019-01-03T11:12:06.208Z,69.10
2019-01-03T11:14:38.256Z,69.41
2019-01-03T11:17:10.201Z,68.75
2019-01-03T11:19:42.063Z,67.96
2019-01-03T11:22:13.966Z,66.66
2019-01-03T11:24:45.871Z,67.08
2019-01-03T11:27:17.767Z,67.00
2019-01-03T11:29:49.738Z,67.32
2019-01-03T11:32:21.649Z,67.33
2019-01-03T11:34:53.638Z,66.70
2019-01-03T11:37:25.698Z,66.24
2019-01-03T11:40:00.350Z,66.48
2019-01-03T11:42:32.258Z,66.34
2019-01-03T11:45:04.328Z,66.49
2019-01-03T11:47:36.334Z,66.58
2019-01-03T11:50:09.929Z,66.55
2019-01-03T11:52:44.721Z,66.38
2019-01-03T11:55:18.397Z,67.11
2019-01-03T11:57:50.374Z,67.15
2019-01-03T12:00:22.244Z,66.89
2019-01-03T12:02:54.159Z,66.95
2019-01-03T12:05:26.133Z,67.06
2019-01-03T12:07:58.004Z,67.03
2019-01-03T12:10:30.013Z,66.32
2019-01-03T12:13:01.870Z,65.51
2019-01-03T12:15:34.836Z,65.37
2019-01-03T12:18:08.420Z,65.68
2019-01-03T12:20:40.441Z,65.73
2019-01-03T12:23:12.353Z,66.09
2019-01-03T12:25:44.249Z,66.82
2019-01-03T12:28:16.190Z,66.89
2019-01-03T12:30:48.242Z,66.55
2019-01-03T12:33:20.626Z,66.42
2019-01-03T12:35:55.915Z,66.16
2019-01-03T12:38:27.791Z,66.36
2019-01-03T12:40:59.702Z,66.22
2019-01-03T12:43:31.693Z,65.90
2019-01-03T12:46:03.583Z,66.69
2019-01-03T12:48:35.455Z,66.07
2019-01-03T12:51:07.348Z,66.40
2019-01-03T12:53:43.909Z,66.45
2019-01-03T12:56:20.709Z,66.28
2019-01-03T12:58:58.044Z,66.19
2019-01-03T13:01:30.063Z,65.75
2019-01-03T13:04:03.235Z,65.40
2019-01-03T13:06:35.483Z,65.85
2019-01-03T13:09:19.008Z,65.29
2019-01-03T13:11:50.953Z,66.16
2019-01-03T13:14:22.985Z,66.59
2019-01-03T13:17:02.688Z,66.04
2019-01-03T13:19:35.866Z,66.28
2019-01-03T13:22:16.922Z,66.06
2019-01-03T13:24:51.873Z,67.17
2019-01-03T13:27:25.952Z,67.09
2019-01-03T13:29:57.979Z,67.18
2019-01-03T13:32:32.419Z,67.39
2019-01-03T13:35:10.008Z,68.66
2019-01-03T13:37:43.178Z,68.94
2019-01-03T13:40:17.653Z,69.14
2019-01-03T13:42:49.522Z,69.01
2019-01-03T13:45:23.978Z,69.35
2019-01-03T13:47:59.875Z,69.07
2019-01-03T13:50:36.166Z,69.20
2019-01-03T13:53:08.149Z,69.61
2019-01-03T13:55:40.703Z,69.89
2019-01-03T13:58:15.037Z,70.23
2019-01-03T14:00:51.811Z,71.20
2019-01-03T14:03:23.676Z,72.09
2019-01-03T14:05:58.588Z,72.10
2019-01-03T14:08:32.611Z,72.56
2019-01-03T14:11:04.567Z,72.78
2019-01-03T14:13:39.375Z,73.15
2019-01-03T14:16:14.092Z,73.29
2019-01-03T14:18:46.356Z,73.50
2019-01-03T14:21:24.016Z,73.77
2019-01-03T14:23:56.292Z,74.10
2019-01-03T14:26:29.562Z,74.00
2019-01-03T14:29:01.472Z,74.27
2019-01-03T14:31:34.980Z,74.48
2019-01-03T14:34:09.745Z,74.56
2019-01-03T14:36:50.977Z,75.01
2019-01-03T14:39:27.868Z,75.21
2019-01-03T14:41:59.728Z,75.41
2019-01-03T14:44:38.589Z,75.34
2019-01-03T14:47:08.980Z,75.28
2019-01-03T14:49:41.245Z,75.39
2019-01-03T14:52:14.535Z,75.59
2019-01-03T14:54:46.440Z,76.05
2019-01-03T14:57:21.769Z,76.44
2019-01-03T14:59:59.274Z,76.77
2019-01-03T15:02:40.176Z,76.97
2019-01-03T15:05:16.379Z,77.37
2019-01-03T15:07:49.299Z,77.62
2019-01-03T15:10:21.205Z,77.76
2019-01-03T15:12:55.523Z,77.92
2019-01-03T15:15:30.208Z,78.11
2019-01-03T15:18:02.097Z,78.33
2019-01-03T15:20:36.412Z,78.37
2019-01-03T15:23:08.294Z,78.68
2019-01-03T15:25:40.556Z,78.56
2019-01-03T15:28:12.584Z,78.53
2019-01-03T15:30:50.084Z,78.38
2019-01-03T15:33:24.743Z,78.65
2019-01-03T15:35:56.638Z,78.47
2019-01-03T15:38:28.565Z,78.48
2019-01-03T15:41:06.082Z,78.51
2019-01-03T15:43:39.092Z,78.54
2019-01-03T15:46:10.995Z,78.39
2019-01-03T15:48:45.398Z,78.26
2019-01-03T15:51:17.407Z,78.32
2019-01-03T15:53:52.019Z,78.55
2019-01-03T15:56:25.299Z,78.42
2019-01-03T15:59:00.018Z,78.43
2019-01-03T16:01:31.886Z,78.33
2019-01-03T16:04:05.437Z,78.53
2019-01-03T16:06:40.109Z,78.70
2019-01-03T16:09:13.890Z,78.85
2019-01-03T16:11:47.330Z,79.06
2019-01-03T16:14:19.238Z,79.23
2019-01-03T16:16:54.519Z,79.29
2019-01-03T16:19:30.583Z,79.51
2019-01-03T16:22:04.602Z,79.47
2019-01-03T16:24:36.549Z,79.32
2019-01-03T16:27:08.473Z,79.64
2019-01-03T16:29:40.384Z,79.67
2019-01-03T16:32:14.173Z,79.45
2019-01-03T16:34:47.157Z,79.48
2019-01-03T16:37:20.919Z,79.59
2019-01-03T16:39:53.932Z,79.50
2019-01-03T16:42:43.225Z,79.43
2019-01-03T16:45:16.768Z,79.37
2019-01-03T16:47:48.737Z,79.06
2019-01-03T16:50:20.644Z,79.19
2019-01-03T16:52:59.715Z,79.32
2019-01-03T16:55:31.645Z,79.12
2019-01-03T16:58:03.573Z,79.09
2019-01-03T17:00:36.953Z,79.19
2019-01-03T17:03:08.873Z,79.31
2019-01-03T17:05:40.792Z,79.26
2019-01-03T17:08:17.279Z,79.16
2019-01-03T17:10:51.449Z,79.09
2019-01-03T17:13:25.461Z,79.09
2019-01-03T17:15:57.351Z,79.04
2019-01-03T17:18:29.338Z,78.69
2019-01-03T17:21:01.563Z,78.92
2019-01-03T17:23:33.512Z,79.09
2019-01-03T17:26:05.416Z,79.14
2019-01-03T17:28:37.338Z,78.99
2019-01-03T17:31:09.217Z,78.97
2019-01-03T17:33:41.144Z,78.81
2019-01-03T17:36:13.022Z,78.99
2019-01-03T17:38:44.953Z,78.86
2019-01-03T17:41:16.879Z,78.91
2019-01-03T17:43:48.795Z,78.82
2019-01-03T17:46:21.816Z,79.05
2019-01-03T17:48:53.771Z,79.04
2019-01-03T17:51:28.722Z,79.13
2019-01-03T17:54:02.020Z,79.12
2019-01-03T17:56:35.687Z,79.04
2019-01-03T17:59:08.361Z,79.13
2019-01-03T18:01:43.090Z,79.35
2019-01-03T18:04:18.335Z,79.33
2019-01-03T18:06:50.208Z,79.27
2019-01-03T18:09:22.176Z,79.56
2019-01-03T18:11:54.089Z,79.78
2019-01-03T18:14:29.227Z,79.85
2019-01-03T18:17:02.498Z,79.88
2019-01-03T18:19:36.666Z,79.66
2019-01-03T18:22:08.553Z,79.71
2019-01-03T18:24:42.770Z,79.76
2019-01-03T18:27:17.444Z,79.76
2019-01-03T18:29:50.614Z,79.71
2019-01-03T18:32:22.541Z,79.78
2019-01-03T18:34:56.322Z,79.58
2019-01-03T18:37:28.219Z,79.71
2019-01-03T18:40:05.254Z,79.71
2019-01-03T18:42:37.160Z,79.65
2019-01-03T18:45:12.886Z,79.58
2019-01-03T18:47:48.211Z,79.64
2019-01-03T18:50:20.568Z,79.81
2019-01-03T18:52:57.782Z,79.69
2019-01-03T18:55:29.718Z,79.44
2019-01-03T18:58:03.966Z,79.44
2019-01-03T19:00:35.944Z,79.42
2019-01-03T19:03:11.498Z,79.54
2019-01-03T19:05:45.803Z,79.60
2019-01-03T19:08:24.339Z,79.67
2019-01-03T19:11:04.162Z,79.56
2019-01-03T19:13:38.014Z,79.70
2019-01-03T19:16:10.062Z,79.41
2019-01-03T19:18:46.781Z,79.37
2019-01-03T19:21:19.775Z,79.43
2019-01-03T19:23:55.390Z,79.41
2019-01-03T19:26:32.349Z,79.56
2019-01-03T19:29:06.576Z,79.38
2019-01-03T19:31:38.518Z,79.42
2019-01-03T19:34:10.522Z,79.51
2019-01-03T19:36:47.055Z,79.52
2019-01-03T19:39:19.040Z,79.38
2019-01-03T19:41:56.259Z,79.23
2019-01-03T19:44:34.982Z,79.29
2019-01-03T19:47:09.554Z,79.42
2019-01-03T19:49:41.515Z,79.31
2019-01-03T19:52:16.473Z,79.41
2019-01-03T19:54:51.614Z,79.45
2019-01-03T19:57:29.143Z,79.38
2019-01-03T20:00:03.906Z,79.48
2019-01-03T20:02:39.526Z,79.46
2019-01-03T20:05:16.076Z,79.55
2019-01-03T20:07:54.431Z,79.63
2019-01-03T20:10:28.037Z,79.60
2019-01-03T20:13:00.946Z,79.72
2019-01-03T20:15:34.276Z,79.84
2019-01-03T20:18:06.184Z,79.81
2019-01-03T20:20:39.805Z,79.78
2019-01-03T20:23:16.516Z,79.68
2019-01-03T20:25:48.557Z,79.56
2019-01-03T20:28:21.487Z,79.40
2019-01-03T20:30:55.358Z,79.41
2019-01-03T20:33:27.306Z,79.45
2019-01-03T20:35:59.491Z,79.49
2019-01-03T20:38:33.124Z,79.56
2019-01-03T20:41:08.474Z,79.35
2019-01-03T20:43:42.256Z,79.34
2019-01-03T20:46:14.388Z,79.37
2019-01-03T20:48:46.396Z,79.39
2019-01-03T20:51:18.356Z,79.19
2019-01-03T20:53:56.722Z,79.62
2019-01-03T20:56:28.703Z,79.77
2019-01-03T20:59:02.755Z,79.86
2019-01-03T21:01:34.715Z,79.83
2019-01-03T21:04:10.753Z,79.75
2019-01-03T21:06:46.415Z,79.78
2019-01-03T21:09:19.840Z,79.94
2019-01-03T21:11:57.813Z,79.95
2019-01-03T21:14:31.016Z,79.81
2019-01-03T21:17:06.954Z,79.75
2019-01-03T21:19:40.632Z,79.64
2019-01-03T21:22:12.534Z,79.84
2019-01-03T21:24:44.491Z,80.00
2019-01-03T21:27:16.391Z,80.12
2019-01-03T21:29:51.065Z,80.09
2019-01-03T21:32:25.826Z,80.17
2019-01-03T21:34:57.687Z,80.23
2019-01-03T21:37:32.131Z,80.28
2019-01-03T21:40:05.212Z,80.34
2019-01-03T21:42:38.617Z,80.35
2019-01-03T21:45:12.156Z,80.22
2019-01-03T21:47:45.185Z,80.24
2019-01-03T21:50:17.101Z,80.35
2019-01-03T21:52:50.137Z,80.16
2019-01-03T21:55:26.418Z,80.11
2019-01-03T21:58:01.699Z,80.31
2019-01-03T22:00:35.264Z,80.32
2019-01-03T22:03:07.254Z,80.07
2019-01-03T22:05:40.918Z,80.09
2019-01-03T22:08:13.899Z,80.25
2019-01-03T22:10:48.582Z,80.30
2019-01-03T22:13:25.922Z,80.50
2019-01-03T22:15:57.857Z,80.44
2019-01-03T22:18:31.403Z,80.37
2019-01-03T22:21:04.554Z,80.42
2019-01-03T22:23:37.547Z,80.46
2019-01-03T22:26:09.589Z,80.39
2019-01-03T22:28:41.876Z,80.42
2019-01-03T22:31:13.777Z,80.44
2019-01-03T22:33:45.689Z,80.51
2019-01-03T22:36:21.712Z,80.33
2019-01-03T22:38:53.633Z,80.15
2019-01-03T22:41:25.563Z,80.03
2019-01-03T22:43:57.467Z,80.00
2019-01-03T22:46:29.396Z,80.02
2019-01-03T22:49:01.255Z,80.08
2019-01-03T22:51:35.948Z,80.16
2019-01-03T22:54:10.256Z,80.31
2019-01-03T22:56:45.158Z,80.32
2019-01-03T22:59:17.060Z,80.29
2019-01-03T23:01:48.975Z,80.29
2019-01-03T23:04:23.639Z,80.15
2019-01-03T23:07:00.238Z,80.29
2019-01-03T23:09:36.222Z,80.43
2019-01-03T23:12:26.944Z,80.40
2019-01-03T23:14:58.828Z,80.39
2019-01-03T23:17:30.772Z,80.26
2019-01-03T23:20:05.550Z,80.43
2019-01-03T23:22:37.557Z,80.49
2019-01-03T23:25:11.556Z,80.10
2019-01-03T23:27:58.317Z,80.25
2019-01-03T23:30:30.210Z,80.50
2019-01-03T23:33:07.339Z,80.78
2019-01-03T23:35:40.293Z,80.98
2019-01-03T23:38:15.118Z,80.94
2019-01-03T23:40:48.567Z,80.83
2019-01-03T23:43:23.376Z,80.68
2019-01-03T23:45:57.402Z,80.61
2019-01-03T23:48:31.902Z,80.79
2019-01-03T23:51:07.110Z,80.83
2019-01-03T23:53:41.841Z,80.85
2019-01-03T23:56:17.406Z,80.69
2019-01-03T23:58:49.329Z,80.57
